Bookmark and Share
Track history (hours):
 

Hanjin Phoenix

Last reported at 2014-Apr-24 10:32 UTC. Time now 2014-Apr-24 11:19 UTC.
Position N 40°40' W 074°08'.

Length 282.1 m; beam 32.2 m; draft 13 m.

Type: Ship (hazmat cat A). MMSI: 636090671.

NotesDate/timePositionNaut miles runAvg speedWind from/ knotsBaromVisibWave heightAir tempDewpointWater temp
2014-Apr-24 10:32N 40°40' W 074°08'0 0.0
2014-Apr-24 09:32N 40°40' W 074°08'0 0.0
2014-Apr-24 08:32N 40°40' W 074°08'0 0.0
2014-Apr-24 07:32N 40°40' W 074°08'0 0.0
2014-Apr-24 06:32N 40°40' W 074°08'0 0.0
2014-Apr-24 05:32N 40°40' W 074°08'0 0.0
2014-Apr-24 04:32N 40°40' W 074°08'0 0.0
2014-Apr-24 03:32N 40°40' W 074°08'0 0.0
2014-Apr-24 02:32N 40°40' W 074°08'0 0.0
2014-Apr-24 01:32N 40°40' W 074°08'0 0.0
2014-Apr-24 00:33N 40°40' W 074°08'0 0.0
2014-Apr-23 23:33N 40°40' W 074°08'0 0.0
2014-Apr-23 22:33N 40°40' W 074°08'0 0.0
2014-Apr-23 21:30N 40°40' W 074°08'0 0.0
2014-Apr-23 20:31N 40°40' W 074°08'0 0.0
2014-Apr-23 19:31N 40°40' W 074°08'0 0.0
2014-Apr-23 18:31N 40°40' W 074°08'0 0.0
2014-Apr-23 17:31N 40°40' W 074°08'0 0.0
2014-Apr-23 16:28N 40°40' W 074°08'0 0.0
2014-Apr-23 15:31N 40°40' W 074°08'0 0.0
2014-Apr-23 14:31N 40°40' W 074°08'0 0.0
2014-Apr-23 13:31N 40°40' W 074°08'0 0.0
2014-Apr-23 12:31N 40°40' W 074°08'0 0.0
2014-Apr-23 11:31N 40°40' W 074°08'0 0.1
2014-Apr-23 10:33N 40°40' W 074°08'4 4.4
2014-Apr-23 09:34N 40°38' W 074°03'1111.3
2014-Apr-23 08:33N 40°29' W 073°54'9 8.7
2014-Apr-23 07:33N 40°25' W 073°44'8 7.9
2014-Apr-23 06:33N 40°20' W 073°36'9 8.4
2014-Apr-23 05:32N 40°15' W 073°27'13 9.1
2014-Apr-23 04:06N 40°07' W 073°13'5 9.5
2014-Apr-23 03:33N 40°07' W 073°07'10 9.8
2014-Apr-23 02:34N 40°07' W 072°54'10 9.7
2014-Apr-23 01:33N 40°07' W 072°41'1010.0
2014-Apr-23 00:34N 40°07' W 072°28'10 9.8
2014-Apr-22 23:34N 40°06' W 072°15'10 9.9
2014-Apr-22 22:33N 40°06' W 072°02'10 9.8
2014-Apr-22 21:34N 40°09' W 071°50'7 7.2
2014-Apr-22 20:33N 40°11' W 071°41'1 0.8
2014-Apr-22 19:14N 40°10' W 071°41'1 0.8
2014-Apr-22 18:33N 40°10' W 071°41'5 9.2
2014-Apr-22 18:00N 40°06' W 071°36'510.5 200 / 71005.010.8 0.516.011.7 8.3
2014-Apr-22 17:33N 40°09' W 071°40'1 0.7
2014-Apr-22 16:33N 40°08' W 071°40'1 0.7
2014-Apr-22 15:30N 40°08' W 071°40'1 0.7
2014-Apr-22 14:12N 40°07' W 071°39'0 0.6
2014-Apr-22 13:33N 40°07' W 071°39'0 0.4
2014-Apr-22 12:33N 40°07' W 071°38'0 0.5
2014-Apr-22 11:33N 40°07' W 071°39'1 1.2
2014-Apr-22 10:33N 40°06' W 071°39'10 9.7
2014-Apr-22 09:34N 40°05' W 071°26'1010.5
2014-Apr-22 08:34N 40°05' W 071°12'1110.6
2014-Apr-22 07:33N 40°05' W 070°58'1110.8
2014-Apr-22 06:33N 40°05' W 070°44'1111.1
2014-Apr-22 05:33N 40°04' W 070°30'1110.9
2014-Apr-22 04:34N 40°04' W 070°16'1210.7
2014-Apr-22 03:27N 40°04' W 070°00'1210.9
2014-Apr-22 02:23N 40°04' W 069°45'911.2
2014-Apr-22 01:33N 40°03' W 069°33'1111.1
2014-Apr-22 00:34N 40°03' W 069°18'1110.9
2014-Apr-21 23:31N 40°03' W 069°03'1010.5
2014-Apr-21 22:33N 40°03' W 068°50'10 9.0
2014-Apr-21 21:24N 40°03' W 068°37'9 8.9
2014-Apr-21 20:26N 40°03' W 068°26'8 9.0
2014-Apr-21 19:32N 40°02' W 068°15'37414.6
2014-Apr-20 18:00N 40°18' W 060°06'27915.5 350 / 261026.510.8 3.012.5 5.715.2
2014-Apr-20 00:00N 40°36' W 054°00'9115.2 310 / 301013.0 2.2 3.015.213.215.3
2014-Apr-19 18:00N 40°42' W 052°00'8714.4 220 / 261016.0 5.4 3.018.514.518.0
2014-Apr-19 12:00N 40°48' W 050°06'17914.9 170 / 251024.5 5.4 2.515.513.917.7
2014-Apr-19 00:00N 41°18' W 046°12'9315.5 030 / 151026.5 5.4 2.011.5 5.615.4
2014-Apr-18 18:00N 41°42' W 044°12'9415.7 010 / 261028.010.8 3.014.510.115.3
2014-Apr-18 12:00N 42°12' W 042°12'18315.3 350 / 241025.0 5.4 3.013.511.814.9
2014-Apr-18 00:00N 43°00' W 038°12'19516.2 010 / 151025.0 5.4 2.013.010.914.2
2014-Apr-17 12:00N 43°54' W 033°54'22718.9 030 / 181025.0 5.4 2.512.8 7.512.3
2014-Apr-17 00:00N 44°54' W 028°48'94218.3 040 / 201022.0 5.4 2.512.511.313.1
2014-Apr-14 20:34N 49°16' W 006°39'17720.6
2014-Apr-14 12:00N 50°06' W 002°18'   360 / 101027.027.0 0.515.5 8.210.1

Dump ship's entire track history

sailing weather and tide predictions

Hanjin Phoenix — A8CN9 — position and weather